Terminal Aerodrome Forecast
Issued by NWS Cleveland, OH

Home | Current Version | Previous Version | Graphics & Text | Print | Product List | Glossary On
Versions: 1 2 3 4 5 6 7 8 9 10 11 12 13 14 15 16 17 18 19 20 21 22 23 24 25 26 27
004
FTUS41 KCLE 090244 AAB
TAFCLE
TAF AMD
KCLE 090244Z 0903/1006 26015G25KT 6SM -SN BKN015 OVC025
     FM090900 27014G22KT 1SM -SHSN OVC008
     FM091400 27012KT 3SM -SHSN SCT008 OVC012
      TEMPO 0914/0918 2SM -SN
     FM092000 27012KT 3SM -SHSN SCT008 OVC020
     FM100300 25010KT 6SM -SN SCT015 OVC020=

USA.gov is the U.S. government's official web portal to all federal, state and local government web resources and services.